createdAt,value
2022-08-17T00:00:43.100Z,21.77
2022-08-17T00:03:17.291Z,21.93
2022-08-17T00:05:51.054Z,21.89
2022-08-17T00:08:21.750Z,21.88
2022-08-17T00:10:50.849Z,21.94
2022-08-17T00:13:24.911Z,21.92
2022-08-17T00:15:54.005Z,21.94
2022-08-17T00:19:01.911Z,21.88
2022-08-17T00:21:12.105Z,21.79
2022-08-17T00:23:46.237Z,21.80
2022-08-17T00:26:43.190Z,21.76
2022-08-17T00:29:10.030Z,21.69
2022-08-17T00:31:48.645Z,21.70
2022-08-17T00:34:17.030Z,21.68
2022-08-17T00:36:46.086Z,21.71
2022-08-17T00:39:14.734Z,21.70
2022-08-17T00:41:43.084Z,21.74
2022-08-17T00:44:13.092Z,21.70
2022-08-17T00:46:45.387Z,21.55
2022-08-17T00:49:16.043Z,21.57
2022-08-17T00:51:50.583Z,21.65
2022-08-17T00:54:23.859Z,21.69
2022-08-17T00:56:56.656Z,21.70
2022-08-17T00:59:31.254Z,21.82
2022-08-17T01:02:00.900Z,21.95
2022-08-17T01:04:31.397Z,21.77
2022-08-17T01:07:02.367Z,21.91
2022-08-17T01:09:32.177Z,21.91
2022-08-17T01:12:01.984Z,21.70
2022-08-17T01:14:31.753Z,21.86
2022-08-17T01:17:01.075Z,21.86
2022-08-17T01:19:34.592Z,21.75
2022-08-17T01:22:07.878Z,21.73
2022-08-17T01:24:39.389Z,21.78
2022-08-17T01:27:10.657Z,21.80
2022-08-17T01:29:42.315Z,21.72
2022-08-17T01:32:11.436Z,21.71
2022-08-17T01:34:42.614Z,21.81
2022-08-17T01:37:12.738Z,21.83
2022-08-17T01:39:46.309Z,21.83
2022-08-17T01:42:22.814Z,21.92
2022-08-17T01:44:56.368Z,21.97
2022-08-17T01:47:25.008Z,21.91
2022-08-17T01:49:53.339Z,22.02
2022-08-17T01:52:23.979Z,21.98
2022-08-17T01:54:55.203Z,22.01
2022-08-17T01:57:23.481Z,22.13
2022-08-17T01:59:51.983Z,22.10
2022-08-17T02:02:31.366Z,21.97
2022-08-17T02:05:00.393Z,21.93
2022-08-17T02:07:29.270Z,21.91
2022-08-17T02:09:59.616Z,21.83
2022-08-17T02:12:37.991Z,21.89
2022-08-17T02:15:12.862Z,21.83
2022-08-17T02:17:41.806Z,21.86
2022-08-17T02:20:11.473Z,21.83
2022-08-17T02:22:42.317Z,21.85
2022-08-17T02:25:20.103Z,21.61
2022-08-17T02:27:48.577Z,21.65
2022-08-17T02:30:49.886Z,21.66
2022-08-17T02:33:09.263Z,21.66
2022-08-17T02:35:38.233Z,21.60
2022-08-17T02:38:08.155Z,21.64
2022-08-17T02:40:40.791Z,21.57
2022-08-17T02:45:53.823Z,21.51
2022-08-17T02:48:30.579Z,21.40
2022-08-17T02:51:00.197Z,21.41
2022-08-17T02:53:31.820Z,21.15
2022-08-17T02:58:48.460Z,21.21
2022-08-17T03:01:17.212Z,21.22
2022-08-17T03:03:48.469Z,21.22
2022-08-17T03:06:19.555Z,21.31
2022-08-17T03:08:47.655Z,21.22
2022-08-17T03:11:17.460Z,21.18
2022-08-17T03:13:47.414Z,21.19
2022-08-17T03:16:17.887Z,21.09
2022-08-17T03:18:48.773Z,21.13
2022-08-17T03:21:17.331Z,21.12
2022-08-17T03:23:45.928Z,21.13
2022-08-17T03:26:16.237Z,21.10
2022-08-17T03:28:46.073Z,21.06
2022-08-17T03:31:14.720Z,21.18
2022-08-17T03:33:45.898Z,21.11
2022-08-17T03:36:14.135Z,21.09
2022-08-17T03:38:42.497Z,21.05
2022-08-17T03:41:14.285Z,21.05
2022-08-17T03:43:42.639Z,21.08
2022-08-17T03:46:35.273Z,21.07
2022-08-17T03:49:22.934Z,20.93
2022-08-17T03:52:10.437Z,20.92
2022-08-17T03:54:56.440Z,20.95
2022-08-17T03:57:26.071Z,21.04
2022-08-17T03:59:55.066Z,21.01
2022-08-17T04:02:28.516Z,20.94
2022-08-17T04:04:57.300Z,21.03
2022-08-17T04:07:28.624Z,21.06
2022-08-17T04:09:58.335Z,21.01
2022-08-17T04:12:31.379Z,21.06
2022-08-17T04:15:00.441Z,20.97
2022-08-17T04:17:31.107Z,21.03
2022-08-17T04:19:59.408Z,21.05
2022-08-17T04:22:31.159Z,21.07
2022-08-17T04:25:03.656Z,21.07
2022-08-17T04:27:32.169Z,21.11
2022-08-17T04:30:00.339Z,21.18
2022-08-17T04:33:03.665Z,21.21
2022-08-17T04:35:23.440Z,21.13
2022-08-17T04:37:51.884Z,21.10
2022-08-17T04:40:38.880Z,21.08
2022-08-17T04:43:10.286Z,21.12
2022-08-17T04:45:51.207Z,21.20
2022-08-17T04:48:29.980Z,21.13
2022-08-17T04:51:05.515Z,21.00
2022-08-17T04:53:33.931Z,21.02
2022-08-17T04:56:02.701Z,21.10
2022-08-17T04:58:31.606Z,21.17
2022-08-17T05:01:00.282Z,21.20
2022-08-17T05:03:30.427Z,21.18
2022-08-17T05:05:58.761Z,21.23
2022-08-17T05:08:27.698Z,21.13
2022-08-17T05:10:56.103Z,21.14
2022-08-17T05:13:25.999Z,21.17
2022-08-17T05:15:59.733Z,21.19
2022-08-17T05:18:30.794Z,21.19
2022-08-17T05:20:59.671Z,21.24
2022-08-17T05:23:42.086Z,21.18
2022-08-17T05:26:21.952Z,21.16
2022-08-17T05:29:00.496Z,21.08
2022-08-17T05:31:31.791Z,21.17
2022-08-17T05:34:01.589Z,21.17
2022-08-17T05:36:41.902Z,21.19
2022-08-17T05:39:17.538Z,21.20
2022-08-17T05:41:49.008Z,21.30
2022-08-17T05:44:18.188Z,21.33
2022-08-17T05:46:52.552Z,21.27
2022-08-17T05:49:28.944Z,21.32
2022-08-17T05:52:10.486Z,21.41
2022-08-17T05:54:53.885Z,21.44
2022-08-17T05:57:42.444Z,21.62
2022-08-17T06:00:30.327Z,21.67
2022-08-17T06:03:30.234Z,21.77
2022-08-17T06:06:31.366Z,21.79
2022-08-17T06:09:13.028Z,21.75
2022-08-17T06:11:53.353Z,21.66
2022-08-17T06:14:54.373Z,21.66
2022-08-17T06:17:27.344Z,21.82
2022-08-17T06:19:59.843Z,21.66
2022-08-17T06:22:34.510Z,21.56
2022-08-17T06:25:10.243Z,21.51
2022-08-17T06:27:42.984Z,21.59
2022-08-17T06:30:15.439Z,21.63
2022-08-17T06:32:46.592Z,21.53
2022-08-17T06:35:18.515Z,21.73
2022-08-17T06:38:04.464Z,21.75
2022-08-17T06:40:55.696Z,21.97
2022-08-17T06:43:47.528Z,21.89
2022-08-17T06:46:23.571Z,21.88
2022-08-17T06:49:08.392Z,21.93
2022-08-17T06:51:40.802Z,21.82
2022-08-17T06:54:16.996Z,21.78
2022-08-17T06:56:54.566Z,21.95
2022-08-17T06:59:54.221Z,22.11
2022-08-17T07:02:29.072Z,22.06
2022-08-17T07:05:11.558Z,22.10
2022-08-17T07:08:04.108Z,21.90
2022-08-17T07:10:47.138Z,21.91
2022-08-17T07:13:29.603Z,21.95
2022-08-17T07:16:12.822Z,21.99
2022-08-17T07:18:40.933Z,22.14
2022-08-17T07:21:26.476Z,22.18
2022-08-17T07:24:08.046Z,22.14
2022-08-17T07:26:39.089Z,22.21
2022-08-17T07:29:07.424Z,22.14
2022-08-17T07:31:35.627Z,21.97
2022-08-17T07:34:09.150Z,21.87
2022-08-17T07:36:37.367Z,22.00
2022-08-17T07:39:06.569Z,22.02
2022-08-17T07:41:53.098Z,22.07
2022-08-17T07:44:27.740Z,22.09
2022-08-17T07:47:13.769Z,22.09
2022-08-17T07:49:49.041Z,21.95
2022-08-17T07:52:50.733Z,21.82
2022-08-17T07:55:29.598Z,22.07
2022-08-17T07:58:01.020Z,22.05
2022-08-17T08:00:31.962Z,22.15
2022-08-17T08:03:15.269Z,21.92
2022-08-17T08:05:52.406Z,22.09
2022-08-17T08:08:31.274Z,22.30
2022-08-17T08:11:04.378Z,22.36
2022-08-17T08:13:35.983Z,22.44
2022-08-17T08:16:25.540Z,22.51
2022-08-17T08:18:58.013Z,22.59
2022-08-17T08:21:37.537Z,22.20
2022-08-17T08:24:30.169Z,22.32
2022-08-17T08:27:16.615Z,22.36
2022-08-17T08:29:55.426Z,22.41
2022-08-17T08:32:37.126Z,22.39
2022-08-17T08:35:09.207Z,22.77
2022-08-17T08:37:49.603Z,23.19
2022-08-17T08:40:36.319Z,23.49
2022-08-17T08:43:18.481Z,23.66
2022-08-17T08:45:56.904Z,23.84
2022-08-17T08:48:58.026Z,23.81
2022-08-17T08:51:39.205Z,23.80
2022-08-17T08:54:26.607Z,23.76
2022-08-17T08:57:23.182Z,23.10
2022-08-17T09:00:01.897Z,23.16
2022-08-17T09:02:56.942Z,23.13
2022-08-17T09:05:39.357Z,23.23
2022-08-17T09:08:26.077Z,23.44
2022-08-17T09:11:03.162Z,23.81
2022-08-17T09:13:40.920Z,23.80
2022-08-17T09:16:15.443Z,24.13
2022-08-17T09:19:03.326Z,24.25
2022-08-17T09:21:48.385Z,23.91
2022-08-17T09:24:24.496Z,24.14
2022-08-17T09:26:59.583Z,24.28
2022-08-17T09:29:32.696Z,24.09
2022-08-17T09:32:03.869Z,23.99
2022-08-17T09:34:43.513Z,23.76
2022-08-17T09:37:21.276Z,23.98
2022-08-17T09:39:56.798Z,23.95
2022-08-17T09:42:30.046Z,23.90
2022-08-17T09:45:17.062Z,23.93
2022-08-17T09:47:51.610Z,23.96
2022-08-17T09:51:04.456Z,23.94
2022-08-17T09:53:13.719Z,24.10
2022-08-17T09:56:01.768Z,24.02
2022-08-17T09:58:41.366Z,23.90
2022-08-17T10:01:18.446Z,24.00
2022-08-17T10:04:08.065Z,23.85
2022-08-17T10:06:48.210Z,23.96
2022-08-17T10:09:38.409Z,23.97
2022-08-17T10:12:21.771Z,23.89
2022-08-17T10:15:16.018Z,23.95
2022-08-17T10:17:56.658Z,24.11
2022-08-17T10:20:30.762Z,24.20
2022-08-17T10:23:21.963Z,24.33
2022-08-17T10:26:11.665Z,24.30
2022-08-17T10:28:46.039Z,24.35
2022-08-17T10:31:34.807Z,24.37
2022-08-17T10:34:34.190Z,24.37
2022-08-17T10:37:16.449Z,24.40
2022-08-17T10:39:59.290Z,24.35
2022-08-17T10:42:33.351Z,24.42
2022-08-17T10:45:06.710Z,24.59
2022-08-17T10:48:05.270Z,24.51
2022-08-17T10:50:50.573Z,24.52
2022-08-17T10:54:00.587Z,24.72
2022-08-17T10:56:51.706Z,24.71
2022-08-17T10:59:53.743Z,24.75
2022-08-17T11:02:28.415Z,24.79
2022-08-17T11:05:16.225Z,24.83
2022-08-17T11:08:01.938Z,24.91
2022-08-17T11:10:51.968Z,24.92
2022-08-17T11:13:35.805Z,24.92
2022-08-17T11:16:24.954Z,24.92
2022-08-17T11:19:21.332Z,24.66
2022-08-17T11:22:11.916Z,24.56
2022-08-17T11:24:43.395Z,24.75
2022-08-17T11:27:26.646Z,24.73
2022-08-17T11:30:02.133Z,24.69
2022-08-17T11:32:37.053Z,24.64
2022-08-17T11:35:13.628Z,24.81
2022-08-17T11:37:52.012Z,24.85
2022-08-17T11:41:03.623Z,24.95
2022-08-17T11:44:15.468Z,24.92
2022-08-17T11:47:18.700Z,24.82
2022-08-17T11:50:25.716Z,24.58
2022-08-17T11:52:56.285Z,24.39
2022-08-17T11:56:02.094Z,24.35
2022-08-17T11:58:48.421Z,24.32
2022-08-17T12:01:57.169Z,24.26
2022-08-17T12:04:29.718Z,24.45
2022-08-17T12:07:01.691Z,24.50
2022-08-17T12:09:33.427Z,24.28
2022-08-17T12:12:13.431Z,24.00
2022-08-17T12:15:09.724Z,24.00
2022-08-17T12:17:41.419Z,24.22
2022-08-17T12:20:24.465Z,24.32
2022-08-17T12:23:01.423Z,24.39
2022-08-17T12:25:38.914Z,24.29
2022-08-17T12:28:27.851Z,24.33
2022-08-17T12:31:00.679Z,24.41
2022-08-17T12:33:30.565Z,24.22
2022-08-17T12:36:03.451Z,24.15
2022-08-17T12:38:34.664Z,24.28
2022-08-17T12:41:25.709Z,24.30
2022-08-17T12:44:02.201Z,24.53
2022-08-17T12:46:33.782Z,24.45
2022-08-17T12:49:22.976Z,24.30
2022-08-17T12:51:54.382Z,24.39
2022-08-17T12:54:29.312Z,24.63
2022-08-17T12:57:02.416Z,24.84
2022-08-17T12:59:33.142Z,24.66
2022-08-17T13:02:02.406Z,24.57
2022-08-17T13:04:33.186Z,24.62
2022-08-17T13:07:01.456Z,24.67
2022-08-17T13:09:33.564Z,24.86
2022-08-17T13:12:08.673Z,24.83
2022-08-17T13:14:37.055Z,24.83
2022-08-17T13:17:11.034Z,24.71
2022-08-17T13:19:49.825Z,24.89
2022-08-17T13:22:23.588Z,25.00
2022-08-17T13:24:54.674Z,25.10
2022-08-17T13:27:25.317Z,25.18
2022-08-17T13:29:57.723Z,25.09
2022-08-17T13:32:37.146Z,25.04
2022-08-17T13:35:39.870Z,24.85
2022-08-17T13:38:10.624Z,24.70
2022-08-17T13:40:42.950Z,24.77
2022-08-17T13:43:12.137Z,24.87
2022-08-17T13:45:52.280Z,24.83
2022-08-17T13:48:24.196Z,24.80
2022-08-17T13:51:19.070Z,24.67
2022-08-17T13:54:06.767Z,24.57
2022-08-17T13:56:56.288Z,24.56
2022-08-17T13:59:53.761Z,24.67
2022-08-17T14:02:27.933Z,24.75
2022-08-17T14:04:58.512Z,24.64
2022-08-17T14:07:37.234Z,24.66
2022-08-17T14:10:11.360Z,24.70
2022-08-17T14:12:42.469Z,24.83
2022-08-17T14:15:12.965Z,24.82
2022-08-17T14:17:41.286Z,24.64
2022-08-17T14:20:12.926Z,24.42
2022-08-17T14:22:46.352Z,24.51
2022-08-17T14:25:16.731Z,24.48
2022-08-17T14:27:52.168Z,24.35
2022-08-17T14:30:23.628Z,24.25
2022-08-17T14:32:52.898Z,24.35
2022-08-17T14:35:23.940Z,24.33
2022-08-17T14:37:54.498Z,24.37
2022-08-17T14:40:25.572Z,24.28
2022-08-17T14:42:55.653Z,24.29
2022-08-17T14:45:30.314Z,24.21
2022-08-17T14:48:01.435Z,24.00
2022-08-17T14:50:29.525Z,24.14
2022-08-17T14:53:01.954Z,24.08
2022-08-17T14:55:33.003Z,24.04
2022-08-17T14:58:01.187Z,24.09
2022-08-17T15:00:29.661Z,24.06
2022-08-17T15:03:00.211Z,24.03
2022-08-17T15:05:31.769Z,24.18
2022-08-17T15:08:02.420Z,24.18
2022-08-17T15:10:32.018Z,24.27
2022-08-17T15:13:00.686Z,24.09
2022-08-17T15:15:29.704Z,24.01
2022-08-17T15:17:59.880Z,23.89
2022-08-17T15:20:31.353Z,23.86
2022-08-17T15:23:01.705Z,23.92
2022-08-17T15:25:33.248Z,23.94
2022-08-17T15:28:02.519Z,23.91
2022-08-17T15:30:31.804Z,23.91
2022-08-17T15:33:01.332Z,24.01
2022-08-17T15:35:32.041Z,24.02
2022-08-17T15:38:10.154Z,23.92
2022-08-17T15:40:44.141Z,23.90
2022-08-17T15:43:15.416Z,23.89
2022-08-17T15:45:44.449Z,23.96
2022-08-17T15:48:25.123Z,23.88
2022-08-17T15:50:54.596Z,23.99
2022-08-17T15:53:24.220Z,23.97
2022-08-17T15:55:52.648Z,24.18
2022-08-17T15:58:20.957Z,24.35
2022-08-17T16:01:15.039Z,24.40
2022-08-17T16:04:03.883Z,24.29
2022-08-17T16:06:35.279Z,24.38
2022-08-17T16:09:05.697Z,24.37
2022-08-17T16:11:33.838Z,24.37
2022-08-17T16:14:02.618Z,24.29
2022-08-17T16:16:31.477Z,24.18
2022-08-17T16:18:59.753Z,24.03
2022-08-17T16:21:31.234Z,23.91
2022-08-17T16:24:14.840Z,23.58
2022-08-17T16:26:43.712Z,23.81
2022-08-17T16:29:12.251Z,23.80
2022-08-17T16:31:43.905Z,23.66
2022-08-17T16:34:18.678Z,23.72
2022-08-17T16:36:54.689Z,23.61
2022-08-17T16:39:27.606Z,23.67
2022-08-17T16:41:58.387Z,23.69
2022-08-17T16:44:31.878Z,23.59
2022-08-17T16:47:00.832Z,23.57
2022-08-17T16:49:36.620Z,23.64
2022-08-17T16:52:10.724Z,23.56
2022-08-17T16:54:44.127Z,23.48
2022-08-17T16:57:13.405Z,23.50
2022-08-17T16:59:45.012Z,23.36
2022-08-17T17:02:17.713Z,23.37
2022-08-17T17:04:55.531Z,23.43
2022-08-17T17:07:50.219Z,23.42
2022-08-17T17:10:23.629Z,23.43
2022-08-17T17:13:02.835Z,23.33
2022-08-17T17:15:47.383Z,23.29
2022-08-17T17:18:17.280Z,23.25
2022-08-17T17:20:53.596Z,23.22
2022-08-17T17:23:39.341Z,23.17
2022-08-17T17:26:33.137Z,23.03
2022-08-17T17:29:20.950Z,23.05
2022-08-17T17:31:57.663Z,23.10
2022-08-17T17:34:30.436Z,23.08
2022-08-17T17:37:03.163Z,23.13
2022-08-17T17:39:41.678Z,23.15
2022-08-17T17:42:20.054Z,23.04
2022-08-17T17:44:52.418Z,22.93
2022-08-17T17:47:21.202Z,22.95
2022-08-17T17:49:50.003Z,22.97
2022-08-17T17:52:26.356Z,22.97
2022-08-17T17:55:06.829Z,23.00
2022-08-17T17:57:50.534Z,22.94
2022-08-17T18:00:23.623Z,22.92
2022-08-17T18:03:11.357Z,22.88
2022-08-17T18:06:19.973Z,22.86
2022-08-17T18:09:06.388Z,22.86
2022-08-17T18:12:04.703Z,22.85
2022-08-17T18:14:58.324Z,22.75
2022-08-17T18:17:29.638Z,22.85
2022-08-17T18:19:58.396Z,22.75
2022-08-17T18:22:27.857Z,22.70
2022-08-17T18:24:57.395Z,22.70
2022-08-17T18:27:32.565Z,22.65
2022-08-17T18:30:09.172Z,22.67
2022-08-17T18:32:41.028Z,22.70
2022-08-17T18:35:30.255Z,22.62
2022-08-17T18:38:20.519Z,22.64
2022-08-17T18:40:59.490Z,22.56
2022-08-17T18:43:43.789Z,22.55
2022-08-17T18:46:28.140Z,22.48
2022-08-17T18:49:00.191Z,22.55
2022-08-17T18:51:41.685Z,22.63
2022-08-17T18:54:20.866Z,22.58
2022-08-17T18:56:55.651Z,22.64
2022-08-17T18:59:28.538Z,22.65
2022-08-17T19:02:32.489Z,22.64
2022-08-17T19:05:13.710Z,22.64
2022-08-17T19:07:45.338Z,22.58
2022-08-17T19:10:22.525Z,22.51
2022-08-17T19:13:00.594Z,22.48
2022-08-17T19:15:34.546Z,22.47
2022-08-17T19:18:15.133Z,22.45
2022-08-17T19:20:49.127Z,22.51
2022-08-17T19:23:23.969Z,22.44
2022-08-17T19:25:55.728Z,22.44
2022-08-17T19:28:28.722Z,22.48
2022-08-17T19:30:59.693Z,22.45
2022-08-17T19:33:30.119Z,22.42
2022-08-17T19:36:07.420Z,22.49
2022-08-17T19:38:47.040Z,22.52
2022-08-17T19:41:23.918Z,22.47
2022-08-17T19:44:19.293Z,22.48
2022-08-17T19:46:56.260Z,22.52
2022-08-17T19:49:41.865Z,22.42
2022-08-17T19:52:24.273Z,22.43
2022-08-17T19:54:59.021Z,22.44
2022-08-17T19:57:40.889Z,22.35
2022-08-17T20:00:15.488Z,22.39
2022-08-17T20:02:51.443Z,22.34
2022-08-17T20:05:25.029Z,22.31
2022-08-17T20:07:58.699Z,22.29
2022-08-17T20:10:38.822Z,22.20
2022-08-17T20:13:11.223Z,22.20
2022-08-17T20:15:43.624Z,22.22
2022-08-17T20:18:19.695Z,22.11
2022-08-17T20:20:58.398Z,22.10
2022-08-17T20:23:45.470Z,22.08
2022-08-17T20:26:21.577Z,22.10
2022-08-17T20:29:37.736Z,22.01
2022-08-17T20:32:25.264Z,21.99
2022-08-17T20:35:07.047Z,22.03
2022-08-17T20:37:43.233Z,21.98
2022-08-17T20:40:37.538Z,22.03
2022-08-17T20:43:51.156Z,22.04
2022-08-17T20:46:31.843Z,21.96
2022-08-17T20:49:24.353Z,21.98
2022-08-17T20:52:01.424Z,21.99
2022-08-17T20:54:50.333Z,21.96
2022-08-17T20:57:45.016Z,21.84
2022-08-17T21:00:18.251Z,21.83
2022-08-17T21:02:53.144Z,21.97
2022-08-17T21:05:32.440Z,21.84
2022-08-17T21:08:20.370Z,21.77
2022-08-17T21:10:50.187Z,21.72
2022-08-17T21:13:42.256Z,21.64
2022-08-17T21:16:41.502Z,21.69
2022-08-17T21:19:31.298Z,21.77
2022-08-17T21:22:14.555Z,21.71
2022-08-17T21:24:55.079Z,21.67
2022-08-17T21:27:36.063Z,21.61
2022-08-17T21:30:24.595Z,21.63
2022-08-17T21:33:28.278Z,21.67
2022-08-17T21:36:27.275Z,21.57
2022-08-17T21:39:08.775Z,21.65
2022-08-17T21:41:48.384Z,21.61
2022-08-17T21:44:31.760Z,21.48
2022-08-17T21:47:15.266Z,21.48
2022-08-17T21:49:43.875Z,21.52
2022-08-17T21:52:15.864Z,21.50
2022-08-17T21:54:51.312Z,21.44
2022-08-17T21:57:23.023Z,21.40
2022-08-17T22:00:01.666Z,21.40
2022-08-17T22:02:33.785Z,21.42
2022-08-17T22:05:04.238Z,21.49
2022-08-17T22:07:39.917Z,21.41
2022-08-17T22:10:27.923Z,21.40
2022-08-17T22:13:16.725Z,21.49
2022-08-17T22:15:48.956Z,21.47
2022-08-17T22:18:23.367Z,21.18
2022-08-17T22:20:54.621Z,21.36
2022-08-17T22:23:43.567Z,21.22
2022-08-17T22:26:17.382Z,21.14
2022-08-17T22:28:48.984Z,21.21
2022-08-17T22:31:19.988Z,21.14
2022-08-17T22:33:50.313Z,21.15
2022-08-17T22:36:25.223Z,21.13
2022-08-17T22:38:54.760Z,21.13
2022-08-17T22:41:41.981Z,21.21
2022-08-17T22:44:20.500Z,21.14
2022-08-17T22:46:59.281Z,21.05
2022-08-17T22:49:31.171Z,21.16
2022-08-17T22:52:24.016Z,21.09
2022-08-17T22:55:31.141Z,21.07
2022-08-17T22:58:17.280Z,21.08
2022-08-17T23:00:47.937Z,21.04
2022-08-17T23:03:20.242Z,20.97
2022-08-17T23:06:03.650Z,20.87
2022-08-17T23:08:34.867Z,20.99
2022-08-17T23:11:03.273Z,20.86
2022-08-17T23:13:33.627Z,20.94
2022-08-17T23:16:02.614Z,20.98
2022-08-17T23:18:32.293Z,20.90
2022-08-17T23:21:01.356Z,20.95
2022-08-17T23:23:31.726Z,20.95
2022-08-17T23:25:59.791Z,20.92
2022-08-17T23:28:28.621Z,20.88
2022-08-17T23:30:56.909Z,20.92
2022-08-17T23:33:30.066Z,20.92
2022-08-17T23:36:00.031Z,20.91
2022-08-17T23:38:29.026Z,21.08
2022-08-17T23:41:00.340Z,21.06
2022-08-17T23:43:31.450Z,20.93
2022-08-17T23:46:03.952Z,20.92
2022-08-17T23:48:36.345Z,20.92
2022-08-17T23:51:11.973Z,20.94
2022-08-17T23:53:47.762Z,20.92
2022-08-17T23:56:18.009Z,20.94
2022-08-17T23:58:49.590Z,20.94
